createdAt,value
2024-02-02T00:02:19.862Z,23.88
2024-02-02T00:04:49.634Z,28.58
2024-02-02T00:07:19.486Z,21.98
2024-02-02T00:09:51.867Z,16.38
2024-02-02T00:12:22.048Z,37.67
2024-02-02T00:14:51.802Z,28.38
2024-02-02T00:17:21.933Z,28.38
2024-02-02T00:19:51.709Z,34.20
2024-02-02T00:22:23.802Z,21.40
2024-02-02T00:24:56.135Z,18.13
2024-02-02T00:27:26.341Z,27.73
2024-02-02T00:29:56.147Z,21.40
2024-02-02T00:32:25.925Z,26.67
2024-02-02T00:34:56.094Z,34.08
2024-02-02T00:37:25.867Z,21.42
2024-02-02T00:39:58.610Z,27.50
2024-02-02T00:42:28.550Z,27.15
2024-02-02T00:44:59.298Z,28.23
2024-02-02T00:47:29.160Z,22.23
2024-02-02T00:50:00.871Z,20.02
2024-02-02T00:52:30.918Z,27.03
2024-02-02T00:55:03.981Z,27.45
2024-02-02T00:57:33.866Z,13.57
2024-02-02T01:00:04.374Z,17.42
2024-02-02T01:02:34.327Z,26.05
2024-02-02T01:05:04.484Z,34.05
2024-02-02T01:07:35.242Z,21.20
2024-02-02T01:10:08.339Z,23.45
2024-02-02T01:12:38.458Z,22.33
2024-02-02T01:15:08.985Z,24.58
2024-02-02T01:17:39.083Z,23.48
2024-02-02T01:20:09.275Z,32.90
2024-02-02T01:22:39.353Z,25.60
2024-02-02T01:25:13.345Z,31.10
2024-02-02T01:27:43.508Z,27.13
2024-02-02T01:30:14.503Z,23.63
2024-02-02T01:32:44.604Z,33.58
2024-02-02T01:35:14.718Z,32.83
2024-02-02T01:37:44.710Z,29.65
2024-02-02T01:40:17.990Z,20.10
2024-02-02T01:42:48.059Z,24.52
2024-02-02T01:45:17.871Z,17.05
2024-02-02T01:47:48.073Z,27.77
2024-02-02T01:50:18.396Z,25.67
2024-02-02T01:52:48.787Z,23.75
2024-02-02T01:55:21.600Z,28.48
2024-02-02T01:57:51.652Z,27.23
2024-02-02T02:00:22.081Z,18.13
2024-02-02T02:02:52.326Z,26.58
2024-02-02T02:05:22.282Z,31.13
2024-02-02T02:07:52.140Z,30.95
2024-02-02T02:10:25.623Z,32.75
2024-02-02T02:12:55.561Z,19.55
2024-02-02T02:15:25.689Z,26.98
2024-02-02T02:17:55.967Z,22.75
2024-02-02T02:20:27.591Z,29.77
2024-02-02T02:23:00.531Z,22.80
2024-02-02T02:25:30.491Z,30.75
2024-02-02T02:28:00.506Z,21.70
2024-02-02T02:30:30.399Z,18.08
2024-02-02T02:33:00.786Z,30.27
2024-02-02T02:35:30.935Z,26.25
2024-02-02T02:38:03.629Z,35.00
2024-02-02T02:40:33.416Z,28.08
2024-02-02T02:43:03.160Z,24.63
2024-02-02T02:45:33.204Z,36.22
2024-02-02T02:48:03.774Z,29.52
2024-02-02T02:50:33.804Z,28.02
2024-02-02T02:53:06.489Z,34.95
2024-02-02T02:55:36.629Z,30.70
2024-02-02T02:58:06.542Z,21.25
2024-02-02T03:00:36.432Z,39.88
2024-02-02T03:03:06.448Z,29.17
2024-02-02T03:05:36.252Z,28.23
2024-02-02T03:08:08.946Z,27.17
2024-02-02T03:10:39.946Z,31.33
2024-02-02T03:13:09.763Z,18.08
2024-02-02T03:15:41.673Z,35.45
2024-02-02T03:18:13.808Z,40.88
2024-02-02T03:20:44.211Z,31.10
2024-02-02T03:23:16.845Z,30.13
2024-02-02T03:25:47.155Z,26.58
2024-02-02T03:28:17.306Z,34.15
2024-02-02T03:30:47.140Z,32.65
2024-02-02T03:33:17.365Z,30.85
2024-02-02T03:35:47.389Z,35.20
2024-02-02T03:38:20.199Z,27.92
2024-02-02T03:40:49.976Z,27.70
2024-02-02T03:43:20.109Z,23.27
2024-02-02T03:45:49.892Z,26.77
2024-02-02T03:48:19.762Z,25.15
2024-02-02T03:50:49.620Z,28.05
2024-02-02T03:53:22.143Z,25.25
2024-02-02T03:55:52.403Z,32.67
2024-02-02T03:58:22.387Z,31.52
2024-02-02T04:00:52.178Z,29.23
2024-02-02T04:03:22.210Z,26.13
2024-02-02T04:05:52.342Z,32.08
2024-02-02T04:08:24.765Z,29.88
2024-02-02T04:10:54.753Z,28.23
2024-02-02T04:13:24.569Z,30.10
2024-02-02T04:15:54.335Z,33.90
2024-02-02T04:18:24.242Z,29.95
2024-02-02T04:20:54.956Z,24.52
2024-02-02T04:23:28.007Z,23.98
2024-02-02T04:25:58.396Z,28.45
2024-02-02T04:28:28.479Z,29.58
2024-02-02T04:30:58.553Z,24.65
2024-02-02T04:33:28.585Z,34.85
2024-02-02T04:35:58.758Z,32.33
2024-02-02T04:38:31.437Z,26.02
2024-02-02T04:41:01.194Z,27.40
2024-02-02T04:43:31.384Z,29.88
2024-02-02T04:46:01.188Z,38.38
2024-02-02T04:48:31.129Z,28.52
2024-02-02T04:51:01.270Z,37.65
2024-02-02T04:53:39.715Z,40.30
2024-02-02T04:56:09.531Z,33.15
2024-02-02T04:58:39.550Z,26.80
2024-02-02T05:01:09.723Z,28.45
2024-02-02T05:03:40.036Z,44.35
2024-02-02T05:06:09.999Z,30.27
2024-02-02T05:08:42.362Z,27.30
2024-02-02T05:11:12.093Z,31.70
2024-02-02T05:13:41.888Z,28.40
2024-02-02T05:16:14.473Z,40.92
2024-02-02T05:18:45.548Z,41.55
2024-02-02T05:21:15.416Z,28.23
2024-02-02T05:23:49.808Z,29.88
2024-02-02T05:26:20.313Z,28.58
2024-02-02T05:28:50.457Z,30.98
2024-02-02T05:31:20.307Z,31.00
2024-02-02T05:33:50.234Z,32.30
2024-02-02T05:36:20.104Z,29.17
2024-02-02T05:38:52.546Z,32.65
2024-02-02T05:41:22.539Z,39.80
2024-02-02T05:43:52.616Z,35.13
2024-02-02T05:46:22.344Z,39.63
2024-02-02T05:48:52.179Z,29.27
2024-02-02T05:51:22.043Z,30.38
2024-02-02T05:53:54.493Z,40.50
2024-02-02T05:56:24.286Z,45.25
2024-02-02T05:58:54.340Z,36.20
2024-02-02T06:01:24.111Z,32.90
2024-02-02T06:03:54.316Z,29.92
2024-02-02T06:06:24.168Z,33.88
2024-02-02T06:09:00.404Z,34.47
2024-02-02T06:11:30.705Z,36.22
2024-02-02T06:14:00.506Z,32.58
2024-02-02T06:16:30.298Z,33.42
2024-02-02T06:19:00.223Z,40.05
2024-02-02T06:21:30.447Z,31.58
2024-02-02T06:24:02.878Z,48.55
2024-02-02T06:26:32.680Z,36.35
2024-02-02T06:29:02.518Z,38.28
2024-02-02T06:31:32.627Z,40.45
2024-02-02T06:34:02.661Z,40.15
2024-02-02T06:36:33.023Z,37.70
2024-02-02T06:39:05.622Z,29.77
2024-02-02T06:41:35.625Z,33.97
2024-02-02T06:44:05.448Z,40.17
2024-02-02T06:46:35.227Z,42.40
2024-02-02T06:49:05.108Z,38.75
2024-02-02T06:51:35.013Z,36.38
2024-02-02T06:54:07.817Z,31.85
2024-02-02T06:56:39.798Z,32.25
2024-02-02T06:59:09.737Z,30.75
2024-02-02T07:01:40.466Z,38.15
2024-02-02T07:04:11.288Z,41.05
2024-02-02T07:06:41.687Z,34.40
2024-02-02T07:09:25.464Z,26.75
2024-02-02T07:12:00.189Z,32.25
2024-02-02T07:14:41.532Z,33.10
2024-02-02T07:17:17.213Z,40.25
2024-02-02T07:19:47.124Z,33.72
2024-02-02T07:22:24.983Z,39.03
2024-02-02T07:24:57.586Z,32.85
2024-02-02T07:27:32.805Z,41.97
2024-02-02T07:30:03.053Z,37.10
2024-02-02T07:32:33.592Z,34.55
2024-02-02T07:35:03.507Z,39.53
2024-02-02T07:37:48.272Z,40.53
2024-02-02T07:40:39.061Z,29.25
2024-02-02T07:43:11.503Z,44.33
2024-02-02T07:45:41.444Z,30.95
2024-02-02T07:48:11.761Z,32.20
2024-02-02T07:50:41.826Z,37.92
2024-02-02T07:53:11.575Z,34.95
2024-02-02T07:55:41.465Z,38.95
2024-02-02T07:58:13.794Z,29.58
2024-02-02T08:00:43.733Z,42.05
2024-02-02T08:03:13.892Z,31.00
2024-02-02T08:05:43.788Z,29.48
2024-02-02T08:08:13.590Z,29.58
2024-02-02T08:10:46.109Z,34.13
2024-02-02T08:13:19.929Z,33.17
2024-02-02T08:15:49.772Z,35.35
2024-02-02T08:18:19.684Z,38.83
2024-02-02T08:20:49.657Z,32.38
2024-02-02T08:23:19.470Z,40.00
2024-02-02T08:25:49.310Z,40.53
2024-02-02T08:28:21.694Z,35.55
2024-02-02T08:30:51.516Z,41.97
2024-02-02T08:33:21.602Z,40.05
2024-02-02T08:35:51.931Z,37.42
2024-02-02T08:38:21.878Z,39.08
2024-02-02T08:40:51.919Z,40.22
2024-02-02T08:43:24.325Z,36.17
2024-02-02T08:46:06.515Z,37.60
2024-02-02T08:48:38.733Z,24.70
2024-02-02T08:51:30.839Z,29.48
2024-02-02T08:54:10.373Z,36.90
2024-02-02T08:56:40.370Z,30.83
2024-02-02T08:59:21.644Z,40.45
2024-02-02T09:01:52.066Z,34.85
2024-02-02T09:04:36.455Z,29.80
2024-02-02T09:07:07.630Z,38.53
2024-02-02T09:09:38.054Z,31.25
2024-02-02T09:12:08.572Z,32.90
2024-02-02T09:14:45.395Z,43.42
2024-02-02T09:17:16.770Z,51.38
2024-02-02T09:19:47.245Z,29.45
2024-02-02T09:22:19.852Z,31.67
2024-02-02T09:24:50.603Z,31.77
2024-02-02T09:27:26.051Z,34.45
2024-02-02T09:29:58.505Z,29.02
2024-02-02T09:32:28.468Z,33.10
2024-02-02T09:35:01.801Z,27.20
2024-02-02T09:37:36.902Z,31.88
2024-02-02T09:40:16.299Z,43.72
2024-02-02T09:43:01.807Z,32.97
2024-02-02T09:45:48.075Z,24.00
2024-02-02T09:48:25.856Z,35.17
2024-02-02T09:51:00.679Z,21.70
2024-02-02T09:53:51.279Z,30.95
2024-02-02T09:56:25.376Z,24.33
2024-02-02T09:58:59.684Z,27.42
2024-02-02T10:01:40.296Z,28.38
2024-02-02T10:04:16.373Z,38.85
2024-02-02T10:06:48.566Z,28.63
2024-02-02T10:09:26.010Z,28.67
2024-02-02T10:12:08.412Z,34.13
2024-02-02T10:14:47.770Z,34.53
2024-02-02T10:17:25.311Z,26.08
2024-02-02T10:20:05.264Z,31.58
2024-02-02T10:22:42.625Z,26.50
2024-02-02T10:25:18.851Z,17.95
2024-02-02T10:27:55.819Z,23.42
2024-02-02T10:30:33.596Z,25.85
2024-02-02T10:33:14.261Z,23.15
2024-02-02T10:35:47.485Z,27.02
2024-02-02T10:38:23.076Z,24.90
2024-02-02T10:40:59.375Z,27.90
2024-02-02T10:43:32.683Z,19.77
2024-02-02T10:46:09.539Z,21.17
2024-02-02T10:48:50.602Z,20.10
2024-02-02T10:51:25.343Z,14.88
2024-02-02T10:54:01.846Z,18.98
2024-02-02T10:56:35.789Z,14.82
2024-02-02T10:59:10.540Z,25.75
2024-02-02T11:01:45.884Z,20.63
2024-02-02T11:04:25.752Z,16.90
2024-02-02T11:06:59.286Z,19.73
2024-02-02T11:09:33.279Z,19.58
2024-02-02T11:12:05.647Z,18.15
2024-02-02T11:14:39.779Z,27.92
2024-02-02T11:17:13.239Z,20.52
2024-02-02T11:20:01.295Z,17.15
2024-02-02T11:22:39.498Z,18.38
2024-02-02T11:25:14.536Z,24.02
2024-02-02T11:27:50.460Z,26.67
2024-02-02T11:30:27.875Z,22.95
2024-02-02T11:33:04.938Z,19.65
2024-02-02T11:35:39.498Z,29.38
2024-02-02T11:38:17.472Z,18.40
2024-02-02T11:40:47.920Z,21.23
2024-02-02T11:43:19.458Z,16.83
2024-02-02T11:45:50.629Z,16.63
2024-02-02T11:48:35.744Z,20.48
2024-02-02T11:51:06.029Z,15.93
2024-02-02T11:53:41.201Z,21.55
2024-02-02T11:56:14.436Z,12.48
2024-02-02T11:58:47.619Z,15.32
2024-02-02T12:01:31.660Z,14.32
2024-02-02T12:04:10.969Z,22.27
2024-02-02T12:06:47.032Z,12.38
2024-02-02T12:09:27.239Z,16.95
2024-02-02T12:11:58.820Z,13.15
2024-02-02T12:14:30.145Z,27.95
2024-02-02T12:17:01.691Z,24.45
2024-02-02T12:19:31.818Z,21.55
2024-02-02T12:22:02.167Z,16.55
2024-02-02T12:24:36.106Z,13.95
2024-02-02T12:27:06.463Z,17.02
2024-02-02T12:29:36.328Z,20.85
2024-02-02T12:32:07.203Z,17.63
2024-02-02T12:34:37.448Z,15.27
2024-02-02T12:37:08.951Z,17.80
2024-02-02T12:39:41.452Z,19.70
2024-02-02T12:48:26.734Z,18.35
2024-02-02T12:50:56.752Z,18.40
2024-02-02T12:53:26.991Z,16.88
2024-02-02T12:56:00.081Z,22.58
2024-02-02T12:58:30.339Z,18.42
2024-02-02T13:01:00.318Z,20.73
2024-02-02T13:03:40.897Z,15.00
2024-02-02T13:06:15.589Z,19.85
2024-02-02T13:08:47.837Z,14.10
2024-02-02T13:11:30.199Z,16.20
2024-02-02T13:14:07.014Z,11.77
2024-02-02T13:16:37.478Z,9.80
2024-02-02T13:19:08.899Z,19.55
2024-02-02T13:21:40.569Z,13.23
2024-02-02T13:24:19.987Z,15.80
2024-02-02T13:26:53.028Z,14.82
2024-02-02T13:29:28.433Z,20.90
2024-02-02T13:32:00.224Z,12.75
2024-02-02T13:34:31.635Z,17.88
2024-02-02T13:37:07.227Z,9.77
2024-02-02T13:39:38.066Z,15.70
2024-02-02T13:42:14.013Z,15.88
2024-02-02T13:44:43.820Z,16.20
2024-02-02T13:47:15.420Z,24.85
2024-02-02T13:49:47.910Z,20.00
2024-02-02T13:52:17.724Z,14.73
2024-02-02T13:54:47.645Z,21.27
2024-02-02T13:57:21.474Z,13.07
2024-02-02T13:59:51.898Z,20.65
2024-02-02T14:02:21.844Z,21.83
2024-02-02T14:04:52.021Z,25.88
2024-02-02T14:07:23.786Z,24.45
2024-02-02T14:10:03.492Z,16.88
2024-02-02T14:12:39.582Z,23.25
2024-02-02T14:15:11.504Z,32.95
2024-02-02T14:17:41.540Z,35.03
2024-02-02T14:20:12.487Z,18.23
2024-02-02T14:22:43.834Z,16.85
2024-02-02T14:25:14.005Z,18.23
2024-02-02T14:27:46.601Z,17.35
2024-02-02T14:30:22.613Z,12.30
2024-02-02T14:33:04.862Z,16.00
2024-02-02T14:35:43.397Z,12.90
2024-02-02T14:38:13.223Z,12.20
2024-02-02T14:40:44.189Z,14.52
2024-02-02T14:43:16.915Z,9.48
2024-02-02T14:45:46.720Z,18.30
2024-02-02T14:48:18.927Z,14.05
2024-02-02T14:50:49.012Z,13.98
2024-02-02T14:53:19.414Z,11.77
2024-02-02T14:55:49.215Z,17.38
2024-02-02T14:58:22.590Z,14.60
2024-02-02T15:00:55.572Z,10.07
2024-02-02T15:03:25.543Z,16.25
2024-02-02T15:05:55.993Z,8.25
2024-02-02T15:08:25.853Z,9.68
2024-02-02T15:10:55.903Z,10.73
2024-02-02T15:13:28.640Z,26.63
2024-02-02T15:15:58.519Z,11.48
2024-02-02T15:18:29.113Z,13.73
2024-02-02T15:20:59.083Z,14.07
2024-02-02T15:23:29.709Z,11.30
2024-02-02T15:25:59.487Z,14.85
2024-02-02T15:28:31.916Z,15.30
2024-02-02T15:31:04.848Z,15.90
2024-02-02T15:33:34.821Z,13.48
2024-02-02T15:36:05.114Z,14.75
2024-02-02T15:38:35.068Z,17.02
2024-02-02T15:41:11.040Z,8.43
2024-02-02T15:43:44.005Z,11.30
2024-02-02T15:48:48.205Z,15.75
2024-02-02T15:51:21.389Z,14.05
2024-02-02T15:53:54.302Z,12.35
2024-02-02T15:56:25.588Z,11.10
2024-02-02T15:58:57.969Z,19.00
2024-02-02T16:01:27.809Z,11.73
2024-02-02T16:03:57.724Z,8.43
2024-02-02T16:06:27.778Z,16.63
2024-02-02T16:08:59.081Z,12.75
2024-02-02T16:11:28.886Z,11.93
2024-02-02T16:14:01.368Z,19.48
2024-02-02T16:16:31.285Z,14.38
2024-02-02T16:19:01.298Z,13.77
2024-02-02T16:21:31.423Z,17.45
2024-02-02T16:24:03.758Z,24.83
2024-02-02T16:26:33.729Z,18.85
2024-02-02T16:29:06.233Z,14.10
2024-02-02T16:31:37.484Z,14.65
2024-02-02T16:34:07.784Z,19.63
2024-02-02T16:36:41.536Z,12.30
2024-02-02T16:39:12.567Z,12.52
2024-02-02T16:41:42.709Z,18.67
2024-02-02T16:44:15.174Z,15.48
2024-02-02T16:46:45.663Z,18.38
2024-02-02T16:49:15.639Z,17.20
2024-02-02T16:51:45.575Z,15.95
2024-02-02T16:54:15.625Z,13.82
2024-02-02T16:56:45.432Z,20.73
2024-02-02T16:59:17.890Z,18.88
2024-02-02T17:01:47.678Z,17.38
2024-02-02T17:04:17.569Z,14.52
2024-02-02T17:06:47.606Z,12.63
2024-02-02T17:09:17.485Z,17.98
2024-02-02T17:11:47.567Z,19.23
2024-02-02T17:14:20.041Z,19.70
2024-02-02T17:16:49.888Z,11.00
2024-02-02T17:19:20.071Z,13.75
2024-02-02T17:21:49.987Z,21.17
2024-02-02T17:24:20.253Z,14.52
2024-02-02T17:26:50.462Z,15.55
2024-02-02T17:29:22.919Z,19.05
2024-02-02T17:31:53.152Z,15.13
2024-02-02T17:34:23.114Z,19.38
2024-02-02T17:36:53.008Z,15.18
2024-02-02T17:39:23.018Z,16.90
2024-02-02T17:41:52.893Z,13.52
2024-02-02T17:44:27.900Z,13.35
2024-02-02T17:46:57.973Z,15.02
2024-02-02T17:49:34.798Z,17.58
2024-02-02T17:52:11.313Z,12.57
2024-02-02T17:54:41.117Z,15.80
2024-02-02T17:57:11.140Z,15.02
2024-02-02T17:59:43.658Z,13.15
2024-02-02T18:02:13.968Z,13.63
2024-02-02T18:04:43.755Z,20.55
2024-02-02T18:07:13.640Z,23.98
2024-02-02T18:09:43.759Z,15.65
2024-02-02T18:12:14.762Z,14.00
2024-02-02T18:14:47.200Z,14.48
2024-02-02T18:17:19.211Z,10.73
2024-02-02T18:19:49.150Z,17.90
2024-02-02T18:22:18.966Z,14.10
2024-02-02T18:24:48.853Z,13.43
2024-02-02T18:27:18.748Z,14.57
2024-02-02T18:29:53.617Z,14.13
2024-02-02T18:32:23.686Z,19.70
2024-02-02T18:34:53.575Z,13.75
2024-02-02T18:37:23.421Z,9.80
2024-02-02T18:39:53.198Z,14.50
2024-02-02T18:42:23.486Z,11.68
2024-02-02T18:44:56.027Z,12.77
2024-02-02T18:47:25.822Z,18.20
2024-02-02T18:49:55.739Z,11.88
2024-02-02T18:52:27.882Z,17.00
2024-02-02T18:54:57.932Z,12.63
2024-02-02T18:57:27.712Z,15.15
2024-02-02T19:00:00.214Z,15.73
2024-02-02T19:02:29.976Z,19.35
2024-02-02T19:05:00.039Z,12.82
2024-02-02T19:07:30.808Z,12.30
2024-02-02T19:10:00.848Z,11.23
2024-02-02T19:12:30.746Z,12.88
2024-02-02T19:15:05.845Z,16.92
2024-02-02T19:17:35.749Z,11.88
2024-02-02T19:20:05.979Z,13.80
2024-02-02T19:22:35.837Z,16.42
2024-02-02T19:25:05.641Z,12.10
2024-02-02T19:27:35.617Z,11.88
2024-02-02T19:30:08.794Z,9.07
2024-02-02T19:32:39.211Z,12.73
2024-02-02T19:35:09.987Z,14.43
2024-02-02T19:37:39.769Z,16.67
2024-02-02T19:40:10.505Z,23.25
2024-02-02T19:42:40.388Z,14.30
2024-02-02T19:45:13.066Z,12.70
2024-02-02T19:47:42.921Z,13.07
2024-02-02T19:50:16.094Z,20.63
2024-02-02T19:52:45.866Z,23.83
2024-02-02T19:55:15.724Z,16.33
2024-02-02T19:57:45.613Z,18.45
2024-02-02T20:00:19.107Z,23.05
2024-02-02T20:02:49.457Z,16.83
2024-02-02T20:05:23.619Z,27.65
2024-02-02T20:07:55.687Z,18.88
2024-02-02T20:10:25.633Z,17.05
2024-02-02T20:12:56.524Z,18.80
2024-02-02T20:15:28.921Z,18.58
2024-02-02T20:17:59.021Z,22.92
2024-02-02T20:20:30.152Z,15.07
2024-02-02T20:22:59.915Z,18.67
2024-02-02T20:25:29.698Z,22.30
2024-02-02T20:28:00.543Z,16.50
2024-02-02T20:30:33.187Z,15.70
2024-02-02T20:33:03.446Z,22.90
2024-02-02T20:35:33.727Z,19.17
2024-02-02T20:38:03.892Z,26.58
2024-02-02T20:40:33.902Z,16.42
2024-02-02T20:43:03.979Z,16.48
2024-02-02T20:45:37.636Z,15.43
2024-02-02T20:48:07.953Z,12.27
2024-02-02T20:50:38.000Z,17.45
2024-02-02T20:53:08.113Z,19.40
2024-02-02T20:55:37.892Z,14.20
2024-02-02T20:58:07.666Z,18.63
2024-02-02T21:00:41.155Z,20.20
2024-02-02T21:03:09.457Z,20.67
2024-02-02T21:05:40.069Z,20.08
2024-02-02T21:08:10.115Z,18.10
2024-02-02T21:10:40.857Z,16.45
2024-02-02T21:13:10.998Z,15.75
2024-02-02T21:15:44.207Z,25.17
2024-02-02T21:18:16.435Z,18.55
2024-02-02T21:20:51.188Z,17.45
2024-02-02T21:23:21.458Z,20.17
2024-02-02T21:25:51.573Z,16.67
2024-02-02T21:28:21.823Z,18.15
2024-02-02T21:30:58.843Z,17.13
2024-02-02T21:33:30.348Z,19.98
2024-02-02T21:36:03.740Z,13.52
2024-02-02T21:38:34.147Z,14.95
2024-02-02T21:41:04.650Z,23.17
2024-02-02T21:43:34.447Z,17.02
2024-02-02T21:46:07.044Z,16.40
2024-02-02T21:48:37.014Z,16.27
2024-02-02T21:51:09.849Z,15.80
2024-02-02T21:53:39.591Z,16.77
2024-02-02T21:56:10.487Z,17.13
2024-02-02T21:58:40.341Z,20.65
2024-02-02T22:01:12.766Z,17.20
2024-02-02T22:03:42.831Z,18.50
2024-02-02T22:06:13.083Z,20.27
2024-02-02T22:08:43.190Z,16.60
2024-02-02T22:11:14.602Z,20.85
2024-02-02T22:13:48.050Z,14.80
2024-02-02T22:16:20.437Z,14.20
2024-02-02T22:18:50.410Z,14.80
2024-02-02T22:21:25.191Z,20.88
2024-02-02T22:23:55.161Z,24.27
2024-02-02T22:26:24.965Z,14.13
2024-02-02T22:28:55.001Z,12.60
2024-02-02T22:31:27.438Z,16.10
2024-02-02T22:33:57.378Z,15.90
2024-02-02T22:36:27.903Z,11.13
2024-02-02T22:38:58.066Z,18.90
2024-02-02T22:41:33.699Z,17.88
2024-02-02T22:44:05.305Z,16.05
2024-02-02T22:46:37.662Z,10.07
2024-02-02T22:49:07.629Z,21.67
2024-02-02T22:51:42.355Z,12.02
2024-02-02T22:54:12.210Z,15.50
2024-02-02T22:56:42.618Z,16.88
2024-02-02T22:59:12.874Z,12.65
2024-02-02T23:01:45.501Z,14.18
2024-02-02T23:04:15.979Z,19.45
2024-02-02T23:06:46.434Z,15.20
2024-02-02T23:09:16.587Z,14.68
2024-02-02T23:11:46.474Z,14.77
2024-02-02T23:14:16.586Z,11.15
2024-02-02T23:16:48.918Z,16.00
2024-02-02T23:19:18.895Z,20.90
2024-02-02T23:21:48.993Z,14.13
2024-02-02T23:24:19.108Z,14.50
2024-02-02T23:26:48.913Z,17.40
2024-02-02T23:29:18.888Z,14.25
2024-02-02T23:31:51.577Z,18.58
2024-02-02T23:34:21.631Z,17.40
2024-02-02T23:36:52.468Z,12.57
2024-02-02T23:39:22.639Z,16.70
2024-02-02T23:41:52.692Z,17.75
2024-02-02T23:44:22.456Z,18.50
2024-02-02T23:46:55.093Z,15.32
2024-02-02T23:49:24.938Z,15.63
2024-02-02T23:51:54.853Z,16.95
2024-02-02T23:54:24.723Z,17.88
2024-02-02T23:56:54.535Z,12.93
2024-02-02T23:59:24.438Z,13.60
